createdAt,value
2019-02-05T00:02:17.492Z,6.25
2019-02-05T00:04:47.018Z,6.25
2019-02-05T00:07:16.524Z,6.62
2019-02-05T00:09:47.114Z,6.30
2019-02-05T00:12:16.687Z,6.92
2019-02-05T00:14:46.256Z,6.92
2019-02-05T00:17:15.927Z,12.23
2019-02-05T00:19:45.495Z,9.88
2019-02-05T00:22:15.146Z,10.78
2019-02-05T00:24:45.129Z,6.75
2019-02-05T00:27:14.708Z,9.05
2019-02-05T00:29:44.276Z,8.13
2019-02-05T00:32:14.491Z,8.95
2019-02-05T00:34:44.545Z,8.20
2019-02-05T00:37:14.174Z,9.23
2019-02-05T00:39:43.841Z,7.80
2019-02-05T00:42:13.994Z,9.50
2019-02-05T00:44:45.202Z,10.72
2019-02-05T00:47:14.779Z,12.20
2019-02-05T00:49:44.282Z,11.65
2019-02-05T00:52:14.371Z,10.72
2019-02-05T00:54:44.131Z,7.90
2019-02-05T00:57:13.636Z,9.23
2019-02-05T00:59:43.170Z,11.10
2019-02-05T01:02:12.821Z,17.12
2019-02-05T01:04:42.326Z,8.83
2019-02-05T01:07:13.424Z,14.30
2019-02-05T01:09:43.044Z,13.20
2019-02-05T01:12:13.993Z,12.95
2019-02-05T01:14:43.606Z,15.70
2019-02-05T01:17:13.564Z,14.90
2019-02-05T01:19:43.075Z,15.32
2019-02-05T01:22:12.824Z,12.28
2019-02-05T01:24:42.703Z,12.37
2019-02-05T01:27:12.346Z,11.35
2019-02-05T01:29:41.994Z,18.30
2019-02-05T01:32:11.544Z,16.40
2019-02-05T01:34:46.141Z,20.15
2019-02-05T01:37:16.272Z,17.12
2019-02-05T01:39:45.854Z,15.28
2019-02-05T01:42:16.770Z,11.83
2019-02-05T01:44:46.329Z,19.87
2019-02-05T01:47:15.825Z,15.38
2019-02-05T01:49:45.398Z,19.48
2019-02-05T01:52:15.102Z,15.68
2019-02-05T01:54:44.634Z,14.23
2019-02-05T01:57:14.220Z,20.70
2019-02-05T01:59:43.828Z,20.25
2019-02-05T02:02:13.994Z,18.55
2019-02-05T02:04:43.522Z,18.37
2019-02-05T02:07:13.277Z,16.95
2019-02-05T02:09:42.896Z,18.80
2019-02-05T02:12:12.719Z,21.70
2019-02-05T02:14:42.330Z,12.40
2019-02-05T02:17:12.179Z,21.65
2019-02-05T02:19:41.794Z,23.67
2019-02-05T02:22:11.457Z,18.98
2019-02-05T02:24:40.980Z,20.55
2019-02-05T02:27:10.598Z,25.90
2019-02-05T02:29:40.569Z,19.15
2019-02-05T02:32:10.756Z,23.50
2019-02-05T02:34:40.278Z,20.70
2019-02-05T02:37:09.884Z,23.47
2019-02-05T02:39:44.033Z,20.65
2019-02-05T02:42:13.600Z,29.37
2019-02-05T02:44:43.307Z,26.85
2019-02-05T02:47:12.893Z,35.17
2019-02-05T02:49:42.417Z,23.80
2019-02-05T02:52:12.066Z,29.05
2019-02-05T02:54:41.635Z,35.13
2019-02-05T02:57:11.217Z,27.25
2019-02-05T02:59:41.636Z,26.60
2019-02-05T03:02:11.382Z,27.95
2019-02-05T03:04:40.984Z,26.02
2019-02-05T03:07:11.030Z,23.95
2019-02-05T03:09:40.537Z,26.62
2019-02-05T03:12:11.244Z,30.43
2019-02-05T03:14:40.799Z,27.45
2019-02-05T03:17:10.324Z,31.73
2019-02-05T03:19:39.847Z,31.35
2019-02-05T03:22:09.526Z,33.35
2019-02-05T03:24:39.099Z,31.00
2019-02-05T03:27:17.285Z,30.05
2019-02-05T03:29:40.155Z,33.80
2019-02-05T03:32:10.173Z,30.92
2019-02-05T03:34:39.847Z,36.30
2019-02-05T03:37:09.518Z,29.25
2019-02-05T03:39:39.051Z,34.58
2019-02-05T03:42:08.840Z,33.70
2019-02-05T03:44:38.595Z,31.77
2019-02-05T03:47:08.233Z,28.02
2019-02-05T03:49:38.000Z,35.80
2019-02-05T03:52:12.416Z,37.93
2019-02-05T03:54:55.793Z,30.52
2019-02-05T03:57:49.546Z,39.55
2019-02-05T04:00:32.433Z,33.28
2019-02-05T04:03:35.478Z,36.38
2019-02-05T04:06:42.860Z,40.50
2019-02-05T04:09:43.544Z,30.50
2019-02-05T04:12:48.038Z,36.48
2019-02-05T04:15:47.001Z,29.05
2019-02-05T04:18:36.319Z,36.17
2019-02-05T04:21:16.912Z,33.35
2019-02-05T04:24:12.058Z,36.55
2019-02-05T04:27:08.883Z,29.45
2019-02-05T04:30:13.423Z,31.93
2019-02-05T04:33:01.850Z,31.77
2019-02-05T04:35:54.142Z,40.88
2019-02-05T04:38:42.562Z,36.90
2019-02-05T04:41:31.565Z,35.92
2019-02-05T04:44:34.601Z,39.58
2019-02-05T04:47:18.092Z,40.10
2019-02-05T04:50:12.934Z,32.73
2019-02-05T04:53:10.860Z,38.20
2019-02-05T04:56:06.239Z,35.48
2019-02-05T04:59:20.336Z,33.28
2019-02-05T05:02:19.004Z,31.57
2019-02-05T05:04:59.137Z,31.17
2019-02-05T05:07:53.227Z,33.50
2019-02-05T05:10:22.916Z,34.38
2019-02-05T05:12:52.739Z,32.58
2019-02-05T05:15:22.361Z,29.42
2019-02-05T05:17:51.947Z,30.68
2019-02-05T05:20:21.512Z,34.95
2019-02-05T05:22:52.527Z,32.17
2019-02-05T05:25:23.547Z,31.12
2019-02-05T05:27:55.161Z,30.15
2019-02-05T05:30:25.084Z,30.05
2019-02-05T05:32:54.669Z,34.83
2019-02-05T05:35:24.491Z,29.05
2019-02-05T05:37:56.323Z,27.37
2019-02-05T05:40:26.269Z,25.32
2019-02-05T05:42:55.867Z,29.50
2019-02-05T05:45:27.657Z,25.37
2019-02-05T05:47:57.173Z,25.88
2019-02-05T05:50:26.688Z,28.92
2019-02-05T05:52:56.708Z,40.67
2019-02-05T05:55:26.360Z,26.37
2019-02-05T05:57:55.949Z,26.97
2019-02-05T06:00:25.589Z,28.07
2019-02-05T06:02:55.174Z,27.07
2019-02-05T06:05:24.823Z,31.33
2019-02-05T06:07:54.662Z,22.20
2019-02-05T06:10:43.577Z,30.68
2019-02-05T06:13:13.604Z,25.40
2019-02-05T06:15:43.184Z,25.17
2019-02-05T06:18:12.782Z,27.32
2019-02-05T06:20:42.372Z,22.20
2019-02-05T06:23:11.938Z,29.05
2019-02-05T06:25:41.501Z,26.25
2019-02-05T06:28:11.121Z,26.93
2019-02-05T06:30:40.766Z,29.60
2019-02-05T06:33:10.258Z,29.67
2019-02-05T06:35:40.173Z,28.40
2019-02-05T06:38:09.680Z,25.95
2019-02-05T06:40:39.320Z,27.98
2019-02-05T06:43:08.930Z,25.85
2019-02-05T06:45:41.412Z,26.10
2019-02-05T06:48:10.298Z,30.20
2019-02-05T06:50:39.836Z,27.05
2019-02-05T06:53:09.882Z,32.60
2019-02-05T06:55:39.492Z,28.67
2019-02-05T06:58:09.649Z,29.27
2019-02-05T07:00:39.168Z,27.65
2019-02-05T07:03:08.872Z,30.48
2019-02-05T07:05:38.549Z,27.98
2019-02-05T07:08:08.191Z,28.60
2019-02-05T07:10:37.797Z,30.35
2019-02-05T07:13:07.669Z,28.35
2019-02-05T07:15:37.275Z,28.23
2019-02-05T07:18:06.938Z,37.60
2019-02-05T07:20:37.677Z,31.48
2019-02-05T07:23:07.218Z,36.28
2019-02-05T07:25:36.821Z,30.08
2019-02-05T07:28:06.449Z,36.05
2019-02-05T07:30:36.056Z,28.85
2019-02-05T07:33:05.999Z,29.05
2019-02-05T07:35:35.958Z,35.15
2019-02-05T07:38:05.728Z,27.15
2019-02-05T07:40:35.385Z,29.02
2019-02-05T07:43:05.494Z,36.40
2019-02-05T07:45:35.111Z,31.62
2019-02-05T07:48:05.362Z,29.07
2019-02-05T07:50:35.000Z,31.85
2019-02-05T07:53:05.553Z,33.75
2019-02-05T07:55:35.237Z,26.65
2019-02-05T07:58:05.116Z,29.67
2019-02-05T08:00:34.653Z,28.55
2019-02-05T08:03:04.648Z,26.02
2019-02-05T08:05:35.602Z,25.50
2019-02-05T08:08:07.316Z,33.70
2019-02-05T08:10:37.079Z,31.17
2019-02-05T08:13:06.835Z,31.00
2019-02-05T08:15:36.734Z,35.52
2019-02-05T08:18:07.859Z,36.05
2019-02-05T08:20:37.575Z,31.00
2019-02-05T08:23:07.206Z,27.13
2019-02-05T08:25:36.889Z,32.83
2019-02-05T08:28:07.093Z,32.98
2019-02-05T08:30:46.857Z,38.65
2019-02-05T08:33:16.578Z,31.30
2019-02-05T08:35:46.332Z,45.03
2019-02-05T08:38:16.078Z,34.40
2019-02-05T08:40:46.849Z,37.42
2019-02-05T08:43:16.462Z,35.88
2019-02-05T08:45:56.227Z,37.20
2019-02-05T08:48:17.476Z,34.65
2019-02-05T08:50:47.108Z,37.65
2019-02-05T08:53:16.783Z,36.77
2019-02-05T08:55:46.383Z,50.23
2019-02-05T08:58:16.153Z,36.77
2019-02-05T09:00:45.900Z,42.78
2019-02-05T09:03:16.110Z,43.68
2019-02-05T09:05:45.793Z,37.08
2019-02-05T09:08:15.397Z,44.13
2019-02-05T09:10:45.618Z,32.20
2019-02-05T09:13:15.715Z,37.25
2019-02-05T09:15:45.242Z,43.05
2019-02-05T09:18:14.953Z,34.35
2019-02-05T09:20:44.512Z,35.20
2019-02-05T09:23:14.499Z,44.73
2019-02-05T09:25:44.587Z,35.80
2019-02-05T09:28:15.266Z,36.77
2019-02-05T09:30:44.941Z,35.75
2019-02-05T09:33:20.217Z,37.33
2019-02-05T09:35:49.754Z,40.98
2019-02-05T09:38:19.376Z,43.78
2019-02-05T09:40:49.570Z,35.58
2019-02-05T09:43:19.673Z,27.87
2019-02-05T09:45:49.347Z,35.30
2019-02-05T09:48:18.977Z,34.20
2019-02-05T09:50:49.004Z,39.78
2019-02-05T09:53:18.608Z,40.05
2019-02-05T09:55:48.172Z,41.02
2019-02-05T09:58:19.519Z,34.78
2019-02-05T10:00:49.132Z,35.40
2019-02-05T10:03:18.943Z,39.90
2019-02-05T10:05:48.593Z,37.48
2019-02-05T10:08:18.259Z,41.33
2019-02-05T10:10:47.984Z,32.28
2019-02-05T10:13:17.569Z,38.40
2019-02-05T10:15:47.347Z,36.42
2019-02-05T10:18:17.035Z,33.35
2019-02-05T10:20:46.705Z,37.85
2019-02-05T10:23:16.387Z,32.28
2019-02-05T10:25:46.172Z,32.65
2019-02-05T10:28:15.879Z,36.33
2019-02-05T10:30:46.643Z,33.88
2019-02-05T10:33:16.372Z,33.55
2019-02-05T10:35:46.143Z,38.15
2019-02-05T10:38:15.874Z,44.35
2019-02-05T10:40:45.547Z,37.85
2019-02-05T10:43:15.224Z,35.03
2019-02-05T10:45:45.430Z,34.57
2019-02-05T10:48:15.436Z,36.17
2019-02-05T10:50:45.502Z,38.40
2019-02-05T10:53:15.671Z,41.55
2019-02-05T10:55:45.322Z,42.83
2019-02-05T10:58:14.931Z,35.23
2019-02-05T11:00:44.692Z,36.55
2019-02-05T11:03:14.422Z,44.20
2019-02-05T11:05:44.054Z,43.02
2019-02-05T11:08:13.614Z,29.03
2019-02-05T11:10:44.448Z,37.70
2019-02-05T11:13:14.158Z,35.50
2019-02-05T11:15:43.804Z,35.65
2019-02-05T11:18:13.736Z,42.98
2019-02-05T11:20:43.346Z,34.15
2019-02-05T11:23:13.034Z,40.48
2019-02-05T11:25:42.885Z,35.43
2019-02-05T11:28:12.645Z,32.27
2019-02-05T11:30:45.086Z,33.63
2019-02-05T11:33:16.444Z,32.70
2019-02-05T11:35:46.215Z,36.08
2019-02-05T11:38:15.905Z,33.30
2019-02-05T11:40:46.212Z,33.23
2019-02-05T11:43:15.815Z,39.98
2019-02-05T11:45:45.557Z,36.28
2019-02-05T11:48:18.281Z,34.23
2019-02-05T11:50:47.895Z,35.70
2019-02-05T11:53:17.423Z,37.48
2019-02-05T11:55:47.269Z,35.10
2019-02-05T11:58:16.896Z,35.00
2019-02-05T12:00:56.858Z,42.40
2019-02-05T12:03:26.973Z,32.40
2019-02-05T12:05:57.183Z,53.30
2019-02-05T12:08:26.951Z,39.10
2019-02-05T12:10:56.652Z,43.80
2019-02-05T12:13:26.338Z,55.73
2019-02-05T12:15:55.995Z,30.75
2019-02-05T12:18:26.178Z,36.17
2019-02-05T12:20:55.852Z,35.92
2019-02-05T12:23:27.031Z,44.70
2019-02-05T12:25:56.641Z,50.63
2019-02-05T12:28:26.201Z,34.70
2019-02-05T12:30:56.304Z,39.40
2019-02-05T12:33:26.368Z,40.10
2019-02-05T12:35:55.998Z,39.00
2019-02-05T12:38:25.665Z,42.60
2019-02-05T12:40:55.268Z,41.07
2019-02-05T12:43:24.895Z,32.60
2019-02-05T12:45:54.997Z,40.05
2019-02-05T12:48:24.759Z,39.70
2019-02-05T12:50:54.368Z,52.25
2019-02-05T12:53:24.148Z,37.40
2019-02-05T12:55:53.788Z,38.13
2019-02-05T12:58:23.389Z,35.05
2019-02-05T13:00:58.391Z,36.55
2019-02-05T13:03:24.656Z,36.47
2019-02-05T13:05:54.409Z,34.83
2019-02-05T13:08:23.974Z,37.03
2019-02-05T13:10:54.041Z,38.67
2019-02-05T13:13:23.727Z,38.73
2019-02-05T13:15:53.829Z,37.25
2019-02-05T13:18:23.705Z,39.03
2019-02-05T13:20:53.365Z,44.83
2019-02-05T13:23:23.049Z,34.55
2019-02-05T13:25:52.597Z,39.95
2019-02-05T13:28:22.197Z,35.45
2019-02-05T13:30:51.863Z,43.10
2019-02-05T13:33:21.550Z,38.50
2019-02-05T13:35:51.167Z,35.40
2019-02-05T13:38:20.849Z,33.92
2019-02-05T13:40:50.466Z,34.73
2019-02-05T13:43:20.550Z,33.70
2019-02-05T13:45:50.659Z,40.53
2019-02-05T13:48:20.213Z,36.25
2019-02-05T13:50:49.749Z,29.48
2019-02-05T13:53:19.399Z,31.12
2019-02-05T13:55:49.095Z,35.98
2019-02-05T13:58:18.786Z,35.13
2019-02-05T14:00:53.783Z,33.02
2019-02-05T14:03:23.536Z,36.43
2019-02-05T14:05:53.061Z,35.98
2019-02-05T14:08:22.803Z,31.82
2019-02-05T14:10:52.376Z,33.80
2019-02-05T14:13:21.916Z,36.85
2019-02-05T14:15:52.943Z,38.65
2019-02-05T14:18:23.187Z,38.63
2019-02-05T14:20:53.312Z,40.13
2019-02-05T14:23:22.970Z,36.67
2019-02-05T14:25:52.650Z,33.08
2019-02-05T14:28:22.256Z,42.47
2019-02-05T14:30:54.223Z,39.00
2019-02-05T14:33:23.926Z,38.50
2019-02-05T14:35:53.554Z,37.75
2019-02-05T14:38:23.855Z,40.93
2019-02-05T14:40:53.396Z,37.05
2019-02-05T14:43:23.585Z,44.53
2019-02-05T14:45:53.290Z,30.23
2019-02-05T14:48:22.895Z,33.30
2019-02-05T14:50:52.462Z,37.73
2019-02-05T14:53:22.039Z,33.00
2019-02-05T14:55:51.903Z,38.60
2019-02-05T14:58:22.243Z,31.37
2019-02-05T15:00:51.954Z,31.23
2019-02-05T15:03:22.029Z,41.88
2019-02-05T15:05:51.577Z,42.25
2019-02-05T15:08:21.215Z,40.80
2019-02-05T15:10:50.897Z,40.35
2019-02-05T15:13:20.588Z,41.37
2019-02-05T15:15:50.297Z,34.92
2019-02-05T15:18:20.087Z,39.65
2019-02-05T15:20:50.078Z,34.27
2019-02-05T15:23:20.588Z,38.25
2019-02-05T15:25:50.129Z,40.38
2019-02-05T15:28:19.820Z,32.08
2019-02-05T15:30:49.527Z,40.50
2019-02-05T15:33:23.816Z,40.92
2019-02-05T15:35:55.157Z,38.13
2019-02-05T15:38:24.877Z,41.40
2019-02-05T15:40:54.661Z,39.55
2019-02-05T15:43:24.728Z,46.20
2019-02-05T15:45:54.263Z,42.23
2019-02-05T15:48:23.946Z,46.35
2019-02-05T15:50:53.683Z,42.40
2019-02-05T15:53:23.694Z,38.55
2019-02-05T15:55:53.312Z,45.05
2019-02-05T15:58:24.928Z,37.75
2019-02-05T16:00:54.537Z,48.90
2019-02-05T16:03:24.405Z,41.10
2019-02-05T16:05:54.393Z,47.33
2019-02-05T16:08:24.412Z,41.65
2019-02-05T16:10:54.028Z,38.35
2019-02-05T16:13:23.679Z,43.85
2019-02-05T16:15:53.287Z,37.75
2019-02-05T16:18:22.974Z,53.58
2019-02-05T16:20:52.985Z,58.25
2019-02-05T16:23:22.979Z,43.28
2019-02-05T16:25:52.659Z,48.00
2019-02-05T16:28:22.374Z,40.17
2019-02-05T16:30:52.030Z,47.20
2019-02-05T16:33:21.676Z,42.62
2019-02-05T16:35:51.314Z,42.17
2019-02-05T16:38:21.413Z,46.13
2019-02-05T16:40:51.634Z,43.45
2019-02-05T16:43:21.261Z,39.65
2019-02-05T16:45:50.881Z,41.08
2019-02-05T16:48:20.572Z,48.60
2019-02-05T16:50:51.434Z,53.17
2019-02-05T16:53:21.136Z,43.60
2019-02-05T16:55:51.235Z,40.75
2019-02-05T16:58:20.966Z,49.45
2019-02-05T17:00:50.655Z,44.00
2019-02-05T17:03:20.204Z,44.88
2019-02-05T17:05:50.022Z,35.80
2019-02-05T17:08:19.644Z,44.83
2019-02-05T17:10:49.263Z,45.88
2019-02-05T17:13:19.105Z,39.33
2019-02-05T17:15:48.716Z,48.70
2019-02-05T17:18:23.593Z,45.05
2019-02-05T17:20:49.689Z,46.88
2019-02-05T17:23:19.233Z,47.83
2019-02-05T17:25:48.838Z,45.78
2019-02-05T17:28:18.491Z,42.73
2019-02-05T17:30:48.026Z,39.67
2019-02-05T17:33:17.589Z,47.00
2019-02-05T17:35:49.940Z,53.85
2019-02-05T17:38:19.473Z,45.45
2019-02-05T17:40:49.031Z,42.67
2019-02-05T17:43:18.674Z,51.02
2019-02-05T17:45:48.693Z,57.75
2019-02-05T17:48:18.654Z,47.67
2019-02-05T17:50:48.358Z,48.90
2019-02-05T17:53:17.896Z,55.17
2019-02-05T17:55:47.500Z,55.75
2019-02-05T17:58:17.372Z,57.30
2019-02-05T18:00:52.102Z,44.00
2019-02-05T18:03:22.540Z,48.58
2019-02-05T18:06:13.011Z,48.30
2019-02-05T18:08:45.339Z,52.13
2019-02-05T18:11:14.984Z,52.93
2019-02-05T18:13:45.512Z,50.92
2019-02-05T18:16:15.279Z,49.73
2019-02-05T18:18:47.724Z,60.55
2019-02-05T18:21:18.970Z,59.55
2019-02-05T18:23:48.748Z,46.98
2019-02-05T18:26:18.865Z,48.70
2019-02-05T18:28:51.312Z,49.20
2019-02-05T18:31:20.946Z,51.35
2019-02-05T18:33:50.494Z,57.27
2019-02-05T18:36:20.131Z,54.20
2019-02-05T18:38:49.887Z,44.93
2019-02-05T18:41:19.826Z,55.15
2019-02-05T18:43:50.237Z,49.23
2019-02-05T18:46:23.258Z,54.38
2019-02-05T18:49:05.319Z,55.17
2019-02-05T18:51:31.344Z,57.33
2019-02-05T18:54:01.263Z,50.88
2019-02-05T18:56:31.503Z,51.25
2019-02-05T18:59:02.746Z,55.05
2019-02-05T19:01:32.853Z,53.25
2019-02-05T19:04:02.462Z,54.65
2019-02-05T19:06:38.182Z,55.98
2019-02-05T19:09:13.110Z,52.00
2019-02-05T19:11:43.226Z,51.40
2019-02-05T19:14:13.002Z,58.52
2019-02-05T19:16:42.789Z,49.15
2019-02-05T19:19:15.527Z,52.75
2019-02-05T19:21:47.485Z,57.90
2019-02-05T19:24:18.638Z,58.58
2019-02-05T19:26:49.255Z,57.55
2019-02-05T19:29:20.533Z,58.42
2019-02-05T19:31:51.133Z,51.10
2019-02-05T19:34:20.923Z,53.15
2019-02-05T19:36:50.631Z,49.65
2019-02-05T19:39:20.342Z,54.25
2019-02-05T19:41:50.634Z,64.85
2019-02-05T19:44:20.338Z,56.23
2019-02-05T19:46:54.556Z,59.30
2019-02-05T19:49:26.289Z,49.75
2019-02-05T19:51:56.790Z,55.60
2019-02-05T19:54:26.955Z,64.27
2019-02-05T19:56:59.651Z,57.15
2019-02-05T19:59:29.948Z,58.55
2019-02-05T20:01:59.667Z,65.47
2019-02-05T20:04:30.547Z,56.30
2019-02-05T20:07:00.231Z,62.20
2019-02-05T20:09:29.842Z,57.43
2019-02-05T20:12:04.224Z,57.75
2019-02-05T20:14:34.077Z,58.45
2019-02-05T20:17:04.440Z,67.22
2019-02-05T20:19:34.488Z,53.73
2019-02-05T20:22:04.361Z,58.92
2019-02-05T20:24:34.072Z,54.35
2019-02-05T20:27:03.931Z,68.62
2019-02-05T20:29:33.685Z,65.92
2019-02-05T20:32:04.020Z,64.00
2019-02-05T20:34:34.205Z,56.48
2019-02-05T20:37:03.991Z,56.15
2019-02-05T20:39:33.840Z,66.05
2019-02-05T20:42:03.921Z,55.90
2019-02-05T20:44:33.749Z,65.08
2019-02-05T20:47:03.852Z,55.45
2019-02-05T20:49:33.623Z,62.78
2019-02-05T20:52:03.598Z,59.23
2019-02-05T20:54:33.345Z,60.12
2019-02-05T20:57:03.363Z,58.85
2019-02-05T20:59:33.085Z,66.80
2019-02-05T21:02:03.089Z,65.10
2019-02-05T21:04:35.416Z,92.42
2019-02-05T21:07:04.442Z,70.25
2019-02-05T21:09:34.051Z,82.97
2019-02-05T21:12:03.830Z,64.67
2019-02-05T21:14:33.584Z,67.75
2019-02-05T21:17:04.063Z,76.02
2019-02-05T21:19:33.891Z,72.55
2019-02-05T21:22:03.661Z,71.12
2019-02-05T21:24:33.462Z,80.15
2019-02-05T21:27:03.448Z,70.95
2019-02-05T21:29:33.127Z,71.72
2019-02-05T21:32:06.041Z,66.33
2019-02-05T21:34:36.029Z,79.70
2019-02-05T21:37:05.721Z,78.12
2019-02-05T21:39:35.373Z,73.02
2019-02-05T21:42:06.109Z,82.30
2019-02-05T21:44:35.673Z,76.07
2019-02-05T21:47:05.664Z,71.50
2019-02-05T21:49:35.572Z,72.20
2019-02-05T21:52:05.362Z,73.37
2019-02-05T21:54:35.169Z,79.95
2019-02-05T21:57:04.863Z,81.30
2019-02-05T21:59:34.394Z,87.05
2019-02-05T22:02:04.132Z,74.70
2019-02-05T22:04:34.219Z,74.60
2019-02-05T22:07:05.330Z,77.08
2019-02-05T22:09:35.070Z,78.78
2019-02-05T22:12:04.705Z,84.37
2019-02-05T22:14:34.333Z,71.97
2019-02-05T22:17:04.479Z,80.40
2019-02-05T22:19:34.009Z,87.70
2019-02-05T22:22:03.718Z,88.05
2019-02-05T22:24:33.354Z,77.17
2019-02-05T22:27:03.438Z,78.07
2019-02-05T22:29:33.876Z,80.20
2019-02-05T22:32:03.440Z,75.28
2019-02-05T22:34:39.388Z,79.20
2019-02-05T22:37:04.427Z,80.42
2019-02-05T22:39:34.770Z,82.53
2019-02-05T22:42:05.009Z,83.60
2019-02-05T22:44:34.624Z,74.22
2019-02-05T22:47:04.402Z,84.67
2019-02-05T22:49:34.008Z,81.28
2019-02-05T22:52:03.549Z,74.97
2019-02-05T22:54:33.112Z,80.60
2019-02-05T22:57:02.719Z,82.65
2019-02-05T22:59:32.952Z,86.85
2019-02-05T23:02:03.468Z,80.22
2019-02-05T23:04:35.580Z,76.55
2019-02-05T23:07:11.836Z,85.90
2019-02-05T23:09:48.776Z,75.62
2019-02-05T23:12:25.979Z,75.40
2019-02-05T23:15:02.962Z,72.78
2019-02-05T23:17:32.738Z,87.53
2019-02-05T23:20:02.442Z,81.53
2019-02-05T23:22:31.965Z,83.47
2019-02-05T23:25:01.513Z,75.78
2019-02-05T23:27:31.093Z,74.25
2019-02-05T23:30:02.170Z,84.20
2019-02-05T23:32:31.777Z,81.20
2019-02-05T23:35:02.628Z,82.22
2019-02-05T23:37:32.593Z,73.47
2019-02-05T23:40:03.014Z,77.12
2019-02-05T23:42:32.525Z,81.12
2019-02-05T23:45:02.028Z,66.90
2019-02-05T23:47:32.030Z,74.77
2019-02-05T23:50:01.533Z,83.62
2019-02-05T23:52:31.121Z,70.28
2019-02-05T23:55:01.122Z,72.25
2019-02-05T23:57:50.212Z,72.58
